Portada
METAR-TAF:

METAR-TAF

Aeroports :

Mammoth Yosemite Airport

Mammoth Lakes, Califòrnia, Estats Units d'Amèrica

latitud: 37-37N, longitud: 118-50W, altitud: 2173 m

Observació

L'informe es va fer fa 30 minuts, a les 16:56 UTC
Vent calma
Temperatura 4°C
Humitat 32%
Pressió 1033 hPa
Visibilitat: 16.1 km
Cel clar

METAR: KMMH 261656Z AUTO 00000KT 10SM CLR 04/M11 A3049 RMK AO2

Hora: 09:26 (17:26 UTC)

Pronòstic

L'informe es va fer fa 5 hores i 51 minuts, a les 11:35 UTC
Pronòstic vàlid del 26 a les 12 UTC al 27 a les 12 UTC
Vent 4 kt amb direcció variable
Visibilitat: 10 km
Núvols disperses a una alçada de 25000 ft
A partir de les 26 a les 2100 UTC
Vent 10 kt del Oest/Sud-Oest amb ràfegues de 18 kt
Visibilitat: 10 km
Núvols disperses a una alçada de 25000 ft

TAF: KMMH 261135Z 2612/2712 VRB04KT P6SM SCT250 FM262100 24010G18KT P6SM SCT250

Observacions i pronòstics meteorològics de més de 4000 aeroports (METAR i TAF).

Les estacions disponibles són els punts grocs i vermells al mapa.

Posi el ratolí al punt desitjat per veure el nom de l'estació.

Feu clic per veure les observacions i els pronòstics meteorològics.

Per canviar el mapa: feu clic els botons verds amb una creu de color negre per apropar; al botó verd amb un guió per allunyar la imatge; o en les fletxes verdes per a mapes adjacents.


METAR-TAF: